Bowdoinham, Maine
Current Conditions -  °F | °C
As of 4:53 AM on Wednesday 22 Oct 2014 (Local Time) from KIWI Reporting Station
Overcast Overcast  
Wind Chill: 50°   Ceiling: 1400
Heat Index: 50°   Visibility: 9mi
Dew Point: 48°   Wind: 3mph
Humidity: 93%   Direction: NA
Pressure: 30.11"   Gusts: NA
Location:  44.01°N, 69.9°W
Report Text: KIWI 220853Z AUTO VRB03KT 9SM OVC014 10/09 A3011 RMK AO2 RAB16E27 SLP197 P0000 60007 T01000089 53008
Loading
Personal Weather Stations






























Interactive Weather Map
Tropical Storm Tracking
New forecast layout! Learn more

10-Day Weather Forecast

Advertisements
Track Severe Weather on mobile